createdAt,value
2023-02-06T00:00:52.651Z,99570.06
2023-02-06T00:03:20.250Z,99579.31
2023-02-06T00:05:55.196Z,99577.59
2023-02-06T00:08:21.888Z,99583.97
2023-02-06T00:10:48.651Z,99587.38
2023-02-06T00:13:15.288Z,99585.13
2023-02-06T00:15:41.985Z,99584.03
2023-02-06T00:18:08.811Z,99590.56
2023-02-06T00:20:36.169Z,99572.00
2023-02-06T00:23:02.805Z,99589.19
2023-02-06T00:25:29.426Z,99593.78
2023-02-06T00:27:56.093Z,99593.13
2023-02-06T00:30:22.740Z,99584.16
2023-02-06T00:32:49.469Z,99596.00
2023-02-06T00:35:16.123Z,99589.50
2023-02-06T00:37:42.697Z,99587.09
2023-02-06T00:40:10.138Z,99588.00
2023-02-06T00:42:36.867Z,99599.44
2023-02-06T00:45:03.649Z,99600.97
2023-02-06T00:47:30.230Z,99598.44
2023-02-06T00:49:56.881Z,99609.19
2023-02-06T00:52:23.516Z,99600.41
2023-02-06T00:54:50.115Z,99597.56
2023-02-06T00:57:16.733Z,99603.28
2023-02-06T00:59:43.330Z,99602.81
2023-02-06T01:02:10.339Z,99605.91
2023-02-06T01:04:37.110Z,99607.50
2023-02-06T01:07:03.686Z,99605.50
2023-02-06T01:09:30.306Z,99609.81
2023-02-06T01:11:56.965Z,99608.44
2023-02-06T01:14:23.714Z,99615.72
2023-02-06T01:16:50.327Z,99614.91
2023-02-06T01:19:16.990Z,99606.53
2023-02-06T01:21:43.570Z,99609.19
2023-02-06T01:24:10.191Z,99602.81
2023-02-06T01:26:36.761Z,99598.25
2023-02-06T01:29:04.053Z,99600.22
2023-02-06T01:31:31.154Z,99588.72
2023-02-06T01:33:59.658Z,99586.19
2023-02-06T01:36:27.350Z,99588.97
2023-02-06T01:38:54.227Z,99591.78
2023-02-06T01:41:22.930Z,99603.19
2023-02-06T01:44:13.195Z,99592.56
2023-02-06T01:46:41.492Z,99596.59
2023-02-06T01:49:13.772Z,99614.63
2023-02-06T01:51:41.157Z,99608.44
2023-02-06T01:54:09.245Z,99610.22
2023-02-06T01:56:44.622Z,99608.59
2023-02-06T01:59:12.463Z,99596.25
2023-02-06T02:01:40.466Z,99598.13
2023-02-06T02:04:13.348Z,99601.69
2023-02-06T02:06:40.746Z,99602.00
2023-02-06T02:09:08.188Z,99610.91
2023-02-06T02:11:37.990Z,99608.44
2023-02-06T02:14:07.293Z,99615.78
2023-02-06T02:17:07.105Z,99616.25
2023-02-06T02:20:11.005Z,99606.06
2023-02-06T02:23:22.577Z,99606.94
2023-02-06T02:26:31.002Z,99610.06
2023-02-06T02:29:47.120Z,99605.81
2023-02-06T02:32:55.521Z,99593.28
2023-02-06T02:36:12.929Z,99595.56
2023-02-06T02:38:58.971Z,99589.75
2023-02-06T02:42:10.335Z,99590.50
2023-02-06T02:44:59.390Z,99597.47
2023-02-06T02:47:33.259Z,99603.56
2023-02-06T02:50:02.369Z,99590.19
2023-02-06T02:52:29.282Z,99585.31
2023-02-06T02:54:55.921Z,99587.56
2023-02-06T02:57:30.555Z,99588.19
2023-02-06T03:00:00.444Z,99573.13
2023-02-06T03:02:38.150Z,99578.50
2023-02-06T03:05:14.848Z,99583.41
2023-02-06T03:08:24.811Z,99578.00
2023-02-06T03:11:13.340Z,99573.97
2023-02-06T03:14:06.422Z,99572.81
2023-02-06T03:16:39.576Z,99587.25
2023-02-06T03:19:17.013Z,99579.38
2023-02-06T03:21:46.296Z,99590.31
2023-02-06T03:24:19.672Z,99584.63
2023-02-06T03:26:49.474Z,99573.84
2023-02-06T03:29:17.769Z,99591.16
2023-02-06T03:31:58.673Z,99594.72
2023-02-06T03:35:01.221Z,99588.13
2023-02-06T03:37:29.431Z,99591.28
2023-02-06T03:39:59.067Z,99588.88
2023-02-06T03:42:27.111Z,99589.06
2023-02-06T03:45:06.416Z,99584.28
2023-02-06T03:47:36.383Z,99601.47
2023-02-06T03:50:03.541Z,99604.19
2023-02-06T03:52:38.441Z,99604.34
2023-02-06T03:55:12.589Z,99591.19
2023-02-06T03:57:42.176Z,99585.97
2023-02-06T04:00:09.821Z,99585.22
2023-02-06T04:02:38.372Z,99588.91
2023-02-06T04:05:05.577Z,99588.09
2023-02-06T04:07:35.091Z,99589.22
2023-02-06T04:10:01.735Z,99600.50
2023-02-06T04:12:28.351Z,99596.09
2023-02-06T04:14:54.975Z,99592.84
2023-02-06T04:17:40.730Z,99594.47
2023-02-06T04:20:09.278Z,99595.28
2023-02-06T04:22:35.928Z,99593.75
2023-02-06T04:25:02.573Z,99603.63
2023-02-06T04:27:29.227Z,99608.09
2023-02-06T04:29:55.860Z,99592.38
2023-02-06T04:32:22.536Z,99596.44
2023-02-06T04:34:49.312Z,99599.41
2023-02-06T04:37:16.109Z,99597.44
2023-02-06T04:39:42.759Z,99598.53
2023-02-06T04:42:09.618Z,99595.97
2023-02-06T04:44:38.408Z,99589.78
2023-02-06T04:47:05.523Z,99579.94
2023-02-06T04:49:32.136Z,99584.50
2023-02-06T04:51:58.750Z,99592.16
2023-02-06T04:54:25.558Z,99589.94
2023-02-06T04:56:52.170Z,99591.09
2023-02-06T04:59:18.790Z,99596.78
2023-02-06T05:01:45.476Z,99585.47
2023-02-06T05:04:12.187Z,99584.63
2023-02-06T05:06:38.785Z,99584.56
2023-02-06T05:09:06.376Z,99582.75
2023-02-06T05:11:33.080Z,99575.88
2023-02-06T05:13:59.698Z,99573.91
2023-02-06T05:16:26.572Z,99570.69
2023-02-06T05:18:57.042Z,99570.81
2023-02-06T05:21:25.148Z,99559.72
2023-02-06T05:23:51.999Z,99566.81
2023-02-06T05:26:19.099Z,99563.97
2023-02-06T05:28:45.777Z,99566.25
2023-02-06T05:31:19.663Z,99564.44
2023-02-06T05:33:50.382Z,99563.81
2023-02-06T05:36:19.456Z,99566.88
2023-02-06T05:38:46.715Z,99569.53
2023-02-06T05:41:13.337Z,99568.50
2023-02-06T05:43:39.899Z,99566.75
2023-02-06T05:46:06.708Z,99572.94
2023-02-06T05:48:34.863Z,99575.03
2023-02-06T05:51:02.252Z,99563.59
2023-02-06T05:53:28.960Z,99561.69
2023-02-06T05:55:56.115Z,99562.22
2023-02-06T05:58:22.755Z,99553.44
2023-02-06T06:00:49.402Z,99558.72
2023-02-06T06:03:16.063Z,99567.88
2023-02-06T06:05:42.691Z,99565.34
2023-02-06T06:08:09.305Z,99568.03
2023-02-06T06:10:35.944Z,99564.59
2023-02-06T06:13:02.573Z,99564.28
2023-02-06T06:15:29.257Z,99565.22
2023-02-06T06:17:55.903Z,99560.09
2023-02-06T06:20:22.908Z,99558.88
2023-02-06T06:22:49.546Z,99566.06
2023-02-06T06:25:16.377Z,99567.09
2023-02-06T06:27:43.013Z,99562.59
2023-02-06T06:30:10.946Z,99566.22
2023-02-06T06:32:37.539Z,99557.41
2023-02-06T06:35:04.433Z,99563.50
2023-02-06T06:37:31.011Z,99567.31
2023-02-06T06:39:57.653Z,99568.09
2023-02-06T06:42:24.269Z,99570.50
2023-02-06T06:44:50.894Z,99566.06
2023-02-06T06:47:17.662Z,99569.16
2023-02-06T06:49:44.450Z,99566.59
2023-02-06T06:52:23.054Z,99559.72
2023-02-06T06:54:51.955Z,99563.94
2023-02-06T06:57:18.902Z,99559.34
2023-02-06T06:59:45.509Z,99556.66
2023-02-06T07:02:12.191Z,99555.16
2023-02-06T07:04:38.983Z,99551.72
2023-02-06T07:07:06.189Z,99548.09
2023-02-06T07:09:32.822Z,99558.25
2023-02-06T07:11:59.461Z,99557.22
2023-02-06T07:14:26.142Z,99558.88
2023-02-06T07:16:53.013Z,99552.31
2023-02-06T07:19:19.617Z,99562.25
2023-02-06T07:21:46.272Z,99557.94
2023-02-06T07:24:12.877Z,99558.28
2023-02-06T07:26:41.482Z,99559.78
2023-02-06T07:29:08.115Z,99561.19
2023-02-06T07:31:34.917Z,99554.78
2023-02-06T07:34:02.333Z,99550.69
2023-02-06T07:36:29.032Z,99544.19
2023-02-06T07:38:55.850Z,99553.31
2023-02-06T07:41:22.455Z,99545.09
2023-02-06T07:43:49.085Z,99552.13
2023-02-06T07:46:15.914Z,99556.47
2023-02-06T07:48:42.580Z,99552.56
2023-02-06T07:51:09.568Z,99558.81
2023-02-06T07:53:37.273Z,99557.28
2023-02-06T07:56:14.940Z,99550.38
2023-02-06T07:58:41.640Z,99558.38
2023-02-06T08:01:09.000Z,99561.72
2023-02-06T08:03:35.808Z,99554.19
2023-02-06T08:06:08.458Z,99552.50
2023-02-06T08:08:35.174Z,99557.00
2023-02-06T08:11:06.249Z,99563.84
2023-02-06T08:13:32.878Z,99559.56
2023-02-06T08:16:02.803Z,99549.25
2023-02-06T08:18:29.479Z,99545.63
2023-02-06T08:21:04.218Z,99550.78
2023-02-06T08:23:31.611Z,99563.38
2023-02-06T08:26:13.622Z,99566.69
2023-02-06T08:28:42.271Z,99569.81
2023-02-06T08:31:37.459Z,99569.00
2023-02-06T08:34:05.608Z,99568.03
2023-02-06T08:36:32.713Z,99573.06
2023-02-06T08:39:00.690Z,99575.72
2023-02-06T08:41:39.558Z,99577.81
2023-02-06T08:44:12.305Z,99578.56
2023-02-06T08:46:39.869Z,99571.56
2023-02-06T08:49:11.659Z,99561.16
2023-02-06T08:51:38.346Z,99557.53
2023-02-06T08:54:08.536Z,99574.84
2023-02-06T08:56:36.432Z,99573.13
2023-02-06T08:59:04.261Z,99576.66
2023-02-06T09:01:33.301Z,99580.41
2023-02-06T09:04:04.749Z,99575.72
2023-02-06T09:06:31.360Z,99585.03
2023-02-06T09:08:58.072Z,99581.69
2023-02-06T09:11:26.365Z,99583.72
2023-02-06T09:13:55.921Z,99574.09
2023-02-06T09:16:22.904Z,99584.22
2023-02-06T09:18:52.214Z,99579.88
2023-02-06T09:21:22.454Z,99587.72
2023-02-06T09:23:55.605Z,99576.00
2023-02-06T09:26:24.630Z,99579.28
2023-02-06T09:28:57.167Z,99597.84
2023-02-06T09:31:25.040Z,99602.19
2023-02-06T09:33:52.014Z,99593.91
2023-02-06T09:36:20.684Z,99602.63
2023-02-06T09:38:50.070Z,99602.34
2023-02-06T09:41:47.751Z,99598.31
2023-02-06T09:44:38.985Z,99601.25
2023-02-06T09:47:24.068Z,99604.66
2023-02-06T09:49:54.610Z,99601.06
2023-02-06T09:52:59.848Z,99595.59
2023-02-06T09:55:52.431Z,99590.06
2023-02-06T09:58:44.141Z,99586.41
2023-02-06T10:01:29.698Z,99586.38
2023-02-06T10:04:34.055Z,99586.09
2023-02-06T10:07:43.650Z,99580.03
2023-02-06T10:10:22.518Z,99576.16
2023-02-06T10:13:03.392Z,99573.81
2023-02-06T10:15:36.490Z,99569.31
2023-02-06T10:18:11.630Z,99564.81
2023-02-06T10:20:52.549Z,99548.00
2023-02-06T10:23:32.408Z,99541.94
2023-02-06T10:26:18.112Z,99538.22
2023-02-06T10:28:49.244Z,99535.44
2023-02-06T10:32:02.295Z,99530.84
2023-02-06T10:34:58.693Z,99526.06
2023-02-06T10:37:47.780Z,99513.47
2023-02-06T10:40:53.075Z,99507.06
2023-02-06T10:43:59.156Z,99513.59
2023-02-06T10:46:43.690Z,99503.25
2023-02-06T10:49:33.842Z,99500.59
2023-02-06T10:52:22.155Z,99489.00
2023-02-06T10:54:55.683Z,99482.97
2023-02-06T10:57:28.554Z,99474.38
2023-02-06T11:00:00.710Z,99473.34
2023-02-06T11:02:52.823Z,99471.50
2023-02-06T11:05:30.936Z,99467.56
2023-02-06T11:08:09.578Z,99466.13
2023-02-06T11:10:36.793Z,99463.56
2023-02-06T11:13:30.573Z,99454.78
2023-02-06T11:16:13.636Z,99455.31
2023-02-06T11:18:43.336Z,99453.25
2023-02-06T11:21:12.827Z,99448.69
2023-02-06T11:23:40.551Z,99451.16
2023-02-06T11:26:14.591Z,99447.94
2023-02-06T11:28:54.187Z,99437.47
2023-02-06T11:31:38.475Z,99429.53
2023-02-06T11:34:05.371Z,99422.50
2023-02-06T11:36:34.787Z,99423.03
2023-02-06T11:39:26.208Z,99422.78
2023-02-06T11:42:01.932Z,99410.94
2023-02-06T11:44:37.727Z,99414.81
2023-02-06T11:47:33.119Z,99406.66
2023-02-06T11:50:36.304Z,99406.50
2023-02-06T11:53:17.458Z,99403.41
2023-02-06T11:55:46.026Z,99400.56
2023-02-06T11:58:24.854Z,99399.53
2023-02-06T12:01:04.777Z,99399.81
2023-02-06T12:03:43.780Z,99392.84
2023-02-06T12:06:16.862Z,99399.13
2023-02-06T12:08:54.165Z,99395.59
2023-02-06T12:11:29.334Z,99393.81
2023-02-06T12:14:01.757Z,99398.44
2023-02-06T12:16:30.241Z,99390.09
2023-02-06T12:18:59.826Z,99386.94
2023-02-06T12:21:48.058Z,99385.41
2023-02-06T12:24:36.199Z,99379.63
2023-02-06T12:27:10.970Z,99374.28
2023-02-06T12:29:43.370Z,99371.91
2023-02-06T12:32:23.132Z,99372.66
2023-02-06T12:34:57.347Z,99364.97
2023-02-06T12:37:44.143Z,99371.44
2023-02-06T12:40:53.976Z,99361.31
2023-02-06T12:43:20.710Z,99362.53
2023-02-06T12:46:17.334Z,99353.69
2023-02-06T12:49:19.988Z,99346.38
2023-02-06T12:51:55.932Z,99351.47
2023-02-06T12:54:29.026Z,99346.06
2023-02-06T12:57:12.608Z,99347.56
2023-02-06T13:00:09.610Z,99350.25
2023-02-06T13:03:28.739Z,99351.03
2023-02-06T13:06:02.992Z,99348.16
2023-02-06T13:08:46.182Z,99341.00
2023-02-06T13:11:39.053Z,99338.47
2023-02-06T13:14:17.714Z,99339.81
2023-02-06T13:17:16.616Z,99337.84
2023-02-06T13:20:06.055Z,99336.94
2023-02-06T13:23:16.621Z,99335.63
2023-02-06T13:25:49.078Z,99342.63
2023-02-06T13:28:41.477Z,99341.00
2023-02-06T13:31:22.551Z,99347.72
2023-02-06T13:33:58.670Z,99341.44
2023-02-06T13:36:44.068Z,99339.19
2023-02-06T13:39:25.498Z,99336.66
2023-02-06T13:41:53.397Z,99329.03
2023-02-06T13:44:38.892Z,99330.38
2023-02-06T13:47:48.400Z,99332.47
2023-02-06T13:50:46.872Z,99325.91
2023-02-06T13:53:50.185Z,99323.81
2023-02-06T13:57:13.514Z,99332.31
2023-02-06T14:00:22.433Z,99332.34
2023-02-06T14:02:56.927Z,99327.56
2023-02-06T14:05:35.406Z,99319.63
2023-02-06T14:08:26.941Z,99323.50
2023-02-06T14:11:10.249Z,99324.13
2023-02-06T14:14:24.852Z,99330.81
2023-02-06T14:17:21.994Z,99322.75
2023-02-06T14:20:33.370Z,99324.13
2023-02-06T14:23:14.662Z,99323.63
2023-02-06T14:29:34.732Z,99320.66
2023-02-06T14:32:27.831Z,99322.28
2023-02-06T14:35:32.068Z,99327.94
2023-02-06T14:38:35.127Z,99322.44
2023-02-06T14:41:03.098Z,99328.41
2023-02-06T14:43:34.530Z,99325.41
2023-02-06T14:46:07.993Z,99329.31
2023-02-06T14:48:57.010Z,99335.75
2023-02-06T14:51:34.655Z,99328.25
2023-02-06T14:54:28.028Z,99324.03
2023-02-06T14:56:59.758Z,99324.59
2023-02-06T14:59:26.752Z,99326.72
2023-02-06T15:01:55.317Z,99327.00
2023-02-06T15:04:28.145Z,99329.84
2023-02-06T15:07:03.528Z,99325.66
2023-02-06T15:09:35.896Z,99334.47
2023-02-06T15:12:26.563Z,99333.84
2023-02-06T15:15:04.574Z,99331.59
2023-02-06T15:17:32.185Z,99328.75
2023-02-06T15:20:40.915Z,99329.63
2023-02-06T15:23:39.797Z,99329.03
2023-02-06T15:26:53.344Z,99335.56
2023-02-06T15:29:23.026Z,99342.59
2023-02-06T15:31:53.071Z,99344.09
2023-02-06T15:34:22.932Z,99352.75
2023-02-06T15:36:50.364Z,99347.78
2023-02-06T15:39:18.147Z,99343.75
2023-02-06T15:41:47.275Z,99348.94
2023-02-06T15:44:31.588Z,99348.78
2023-02-06T15:46:58.649Z,99353.69
2023-02-06T15:49:41.441Z,99354.41
2023-02-06T15:52:09.118Z,99355.09
2023-02-06T15:54:35.827Z,99357.16
2023-02-06T15:57:38.553Z,99364.66
2023-02-06T16:00:09.604Z,99367.22
2023-02-06T16:02:39.643Z,99361.22
2023-02-06T16:05:08.672Z,99368.91
2023-02-06T16:07:36.332Z,99370.41
2023-02-06T16:10:10.302Z,99373.66
2023-02-06T16:12:45.652Z,99367.59
2023-02-06T16:15:37.844Z,99362.47
2023-02-06T16:18:33.326Z,99371.97
2023-02-06T16:21:32.507Z,99379.63
2023-02-06T16:24:14.521Z,99375.03
2023-02-06T16:26:52.336Z,99384.50
2023-02-06T16:29:31.894Z,99388.22
2023-02-06T16:32:12.446Z,99395.06
2023-02-06T16:34:41.616Z,99393.47
2023-02-06T16:37:17.401Z,99396.22
2023-02-06T16:39:45.705Z,99399.31
2023-02-06T16:42:24.472Z,99399.13
2023-02-06T16:44:59.379Z,99406.41
2023-02-06T16:47:26.389Z,99410.09
2023-02-06T16:49:53.085Z,99413.50
2023-02-06T16:52:47.106Z,99426.69
2023-02-06T16:55:23.560Z,99424.88
2023-02-06T16:57:54.071Z,99435.31
2023-02-06T17:00:28.934Z,99439.94
2023-02-06T17:02:57.224Z,99448.22
2023-02-06T17:05:26.876Z,99460.56
2023-02-06T17:07:53.989Z,99456.16
2023-02-06T17:10:24.263Z,99455.88
2023-02-06T17:12:50.972Z,99470.78
2023-02-06T17:15:18.833Z,99468.63
2023-02-06T17:17:46.181Z,99474.31
2023-02-06T17:20:32.907Z,99483.84
2023-02-06T17:22:59.997Z,99482.91
2023-02-06T17:25:26.823Z,99477.56
2023-02-06T17:27:53.913Z,99482.59
2023-02-06T17:30:22.665Z,99486.44
2023-02-06T17:32:49.328Z,99485.19
2023-02-06T17:35:16.931Z,99483.25
2023-02-06T17:37:43.770Z,99484.09
2023-02-06T17:40:22.911Z,99477.13
2023-02-06T17:42:49.616Z,99481.63
2023-02-06T17:45:16.564Z,99480.25
2023-02-06T17:47:43.708Z,99488.63
2023-02-06T17:50:14.235Z,99492.16
2023-02-06T17:52:41.343Z,99495.97
2023-02-06T17:55:08.618Z,99489.88
2023-02-06T17:57:36.426Z,99492.91
2023-02-06T18:00:06.121Z,99489.47
2023-02-06T18:02:32.930Z,99489.47
2023-02-06T18:05:00.036Z,99482.91
2023-02-06T18:07:27.503Z,99491.06
2023-02-06T18:09:54.276Z,99494.06
2023-02-06T18:12:21.167Z,99489.88
2023-02-06T18:14:49.945Z,99493.75
2023-02-06T18:17:18.845Z,99496.53
2023-02-06T18:19:48.213Z,99500.91
2023-02-06T18:22:21.494Z,99498.84
2023-02-06T18:24:49.841Z,99500.22
2023-02-06T18:27:17.692Z,99502.34
2023-02-06T18:29:50.018Z,99499.34
2023-02-06T18:32:18.644Z,99504.00
2023-02-06T18:34:45.638Z,99502.16
2023-02-06T18:37:12.361Z,99509.78
2023-02-06T18:39:39.535Z,99511.50
2023-02-06T18:42:25.293Z,99506.13
2023-02-06T18:44:51.910Z,99504.97
2023-02-06T18:47:19.745Z,99504.19
2023-02-06T18:49:46.644Z,99503.13
2023-02-06T18:52:13.302Z,99504.09
2023-02-06T18:54:40.178Z,99510.53
2023-02-06T18:57:07.090Z,99518.78
2023-02-06T18:59:34.556Z,99508.75
2023-02-06T19:02:01.453Z,99507.69
2023-02-06T19:04:28.248Z,99516.78
2023-02-06T19:06:54.978Z,99519.66
2023-02-06T19:09:21.635Z,99516.66
2023-02-06T19:11:48.746Z,99521.56
2023-02-06T19:14:17.139Z,99522.09
2023-02-06T19:16:47.302Z,99519.44
2023-02-06T19:19:14.907Z,99517.22
2023-02-06T19:21:43.446Z,99525.66
2023-02-06T19:24:15.272Z,99530.41
2023-02-06T19:26:43.243Z,99537.78
2023-02-06T19:29:13.209Z,99537.88
2023-02-06T19:31:40.674Z,99542.06
2023-02-06T19:34:07.334Z,99533.66
2023-02-06T19:36:34.582Z,99529.97
2023-02-06T19:39:05.188Z,99533.09
2023-02-06T19:41:34.222Z,99533.53
2023-02-06T19:44:12.239Z,99529.28
2023-02-06T19:46:39.667Z,99535.03
2023-02-06T19:49:08.733Z,99537.47
2023-02-06T19:51:39.731Z,99532.38
2023-02-06T19:54:06.494Z,99540.66
2023-02-06T19:56:40.230Z,99543.00
2023-02-06T19:59:18.049Z,99546.16
2023-02-06T20:01:47.199Z,99543.66
2023-02-06T20:04:14.313Z,99539.31
2023-02-06T20:06:43.976Z,99543.00
2023-02-06T20:09:12.757Z,99541.91
2023-02-06T20:11:40.586Z,99544.25
2023-02-06T20:14:07.705Z,99540.41
2023-02-06T20:16:37.846Z,99551.88
2023-02-06T20:19:21.899Z,99550.38
2023-02-06T20:21:51.643Z,99562.13
2023-02-06T20:24:22.126Z,99565.41
2023-02-06T20:26:58.323Z,99566.81
2023-02-06T20:29:27.975Z,99573.75
2023-02-06T20:31:55.455Z,99573.00
2023-02-06T20:34:22.597Z,99566.06
2023-02-06T20:36:50.867Z,99567.47
2023-02-06T20:39:18.816Z,99570.00
2023-02-06T20:41:46.124Z,99567.56
2023-02-06T20:44:13.903Z,99569.56
2023-02-06T20:46:41.080Z,99558.47
2023-02-06T20:49:13.633Z,99551.69
2023-02-06T20:51:40.656Z,99553.44
2023-02-06T20:54:07.556Z,99545.56
2023-02-06T20:56:34.451Z,99537.94
2023-02-06T20:59:01.329Z,99534.28
2023-02-06T21:01:30.457Z,99531.47
2023-02-06T21:04:02.927Z,99531.94
2023-02-06T21:06:30.532Z,99531.78
2023-02-06T21:09:00.120Z,99530.91
2023-02-06T21:11:34.033Z,99532.09
2023-02-06T21:14:03.697Z,99539.16
2023-02-06T21:16:31.293Z,99541.16
2023-02-06T21:19:00.132Z,99539.50
2023-02-06T21:21:27.088Z,99532.00
2023-02-06T21:23:57.235Z,99550.50
2023-02-06T21:26:25.502Z,99555.75
2023-02-06T21:28:53.177Z,99554.66
2023-02-06T21:31:23.961Z,99553.84
2023-02-06T21:33:52.072Z,99543.56
2023-02-06T21:36:20.994Z,99543.44
2023-02-06T21:38:47.802Z,99536.59
2023-02-06T21:41:17.161Z,99545.09
2023-02-06T21:43:44.186Z,99545.19
2023-02-06T21:46:11.874Z,99541.03
2023-02-06T21:48:39.004Z,99551.06
2023-02-06T21:51:15.302Z,99549.56
2023-02-06T21:53:43.418Z,99557.28
2023-02-06T21:56:15.168Z,99554.06
2023-02-06T21:58:41.943Z,99543.25
2023-02-06T22:01:17.090Z,99555.50
2023-02-06T22:03:45.038Z,99552.00
2023-02-06T22:06:13.036Z,99560.72
2023-02-06T22:08:42.610Z,99563.19
2023-02-06T22:11:18.392Z,99560.78
2023-02-06T22:13:45.792Z,99573.09
2023-02-06T22:16:13.876Z,99582.34
2023-02-06T22:18:41.270Z,99577.28
2023-02-06T22:21:12.760Z,99579.28
2023-02-06T22:23:40.405Z,99589.59
2023-02-06T22:26:08.904Z,99581.41
2023-02-06T22:28:35.789Z,99591.41
2023-02-06T22:31:11.054Z,99595.69
2023-02-06T22:33:37.970Z,99589.31
2023-02-06T22:36:13.803Z,99590.78
2023-02-06T22:38:41.584Z,99600.59
2023-02-06T22:41:12.007Z,99606.19
2023-02-06T22:43:39.672Z,99617.69
2023-02-06T22:46:07.471Z,99618.19
2023-02-06T22:48:35.132Z,99610.91
2023-02-06T22:51:06.676Z,99616.00
2023-02-06T22:53:33.374Z,99635.44
2023-02-06T22:56:20.813Z,99628.66
2023-02-06T22:58:48.441Z,99640.44
2023-02-06T23:01:16.816Z,99647.63
2023-02-06T23:03:43.427Z,99648.38
2023-02-06T23:06:11.887Z,99655.63
2023-02-06T23:08:40.005Z,99656.75
2023-02-06T23:11:07.939Z,99653.09
2023-02-06T23:13:34.770Z,99653.09
2023-02-06T23:16:02.330Z,99649.53
2023-02-06T23:18:29.591Z,99651.13
2023-02-06T23:21:01.343Z,99648.25
2023-02-06T23:23:28.629Z,99656.94
2023-02-06T23:25:55.930Z,99659.47
2023-02-06T23:28:23.719Z,99669.47
2023-02-06T23:30:50.764Z,99667.97
2023-02-06T23:33:18.477Z,99667.63
2023-02-06T23:35:45.577Z,99669.88
2023-02-06T23:38:12.520Z,99661.59
2023-02-06T23:40:39.786Z,99670.22
2023-02-06T23:43:07.181Z,99668.72
2023-02-06T23:45:34.531Z,99674.53
2023-02-06T23:48:01.112Z,99671.28
2023-02-06T23:50:27.944Z,99658.28
2023-02-06T23:52:54.677Z,99659.66
2023-02-06T23:55:21.518Z,99663.81
2023-02-06T23:57:48.166Z,99667.53
